sensor_id;sensor_type;location;lat;lon;timestamp;P1;durP1;ratioP1;P2;durP2;ratioP2
77722;SDS011;67811;42.656;23.394;2023-05-15T00:00:38;9.05;;;4.63;;
77722;SDS011;67811;42.656;23.394;2023-05-15T00:03:03;10.57;;;5.95;;
77722;SDS011;67811;42.656;23.394;2023-05-15T00:05:29;8.43;;;5.03;;
77722;SDS011;67811;42.656;23.394;2023-05-15T00:07:54;8.52;;;5.25;;
77722;SDS011;67811;42.656;23.394;2023-05-15T00:10:20;6.00;;;4.45;;
77722;SDS011;67811;42.656;23.394;2023-05-15T00:12:45;7.72;;;4.30;;
77722;SDS011;67811;42.656;23.394;2023-05-15T00:15:10;10.02;;;4.50;;
77722;SDS011;67811;42.656;23.394;2023-05-15T00:17:36;8.70;;;4.85;;
77722;SDS011;67811;42.656;23.394;2023-05-15T00:20:01;8.00;;;3.90;;
77722;SDS011;67811;42.656;23.394;2023-05-15T00:22:26;7.28;;;4.38;;
77722;SDS011;67811;42.656;23.394;2023-05-15T00:24:51;8.30;;;4.47;;
77722;SDS011;67811;42.656;23.394;2023-05-15T00:27:17;7.60;;;4.65;;
77722;SDS011;67811;42.656;23.394;2023-05-15T00:29:42;7.00;;;4.38;;
77722;SDS011;67811;42.656;23.394;2023-05-15T00:32:07;9.60;;;4.10;;
77722;SDS011;67811;42.656;23.394;2023-05-15T00:34:33;6.00;;;3.60;;
77722;SDS011;67811;42.656;23.394;2023-05-15T00:36:58;8.45;;;4.55;;
77722;SDS011;67811;42.656;23.394;2023-05-15T00:39:24;6.93;;;4.25;;
77722;SDS011;67811;42.656;23.394;2023-05-15T00:41:49;7.30;;;4.00;;
77722;SDS011;67811;42.656;23.394;2023-05-15T00:44:16;5.50;;;4.00;;
77722;SDS011;67811;42.656;23.394;2023-05-15T00:46:43;6.32;;;3.70;;
77722;SDS011;67811;42.656;23.394;2023-05-15T00:49:10;4.57;;;3.40;;
77722;SDS011;67811;42.656;23.394;2023-05-15T00:51:36;7.07;;;4.85;;
77722;SDS011;67811;42.656;23.394;2023-05-15T00:54:01;6.28;;;4.38;;
77722;SDS011;67811;42.656;23.394;2023-05-15T00:56:27;7.95;;;4.43;;
77722;SDS011;67811;42.656;23.394;2023-05-15T00:58:53;7.50;;;3.53;;
77722;SDS011;67811;42.656;23.394;2023-05-15T01:01:20;6.93;;;3.78;;
77722;SDS011;67811;42.656;23.394;2023-05-15T01:03:45;5.63;;;3.90;;
77722;SDS011;67811;42.656;23.394;2023-05-15T01:06:11;7.90;;;3.60;;
77722;SDS011;67811;42.656;23.394;2023-05-15T01:08:37;6.60;;;4.20;;
77722;SDS011;67811;42.656;23.394;2023-05-15T01:11:06;5.55;;;3.55;;
77722;SDS011;67811;42.656;23.394;2023-05-15T01:13:32;6.10;;;4.30;;
77722;SDS011;67811;42.656;23.394;2023-05-15T01:15:57;7.57;;;4.45;;
77722;SDS011;67811;42.656;23.394;2023-05-15T01:18:23;7.47;;;4.72;;
77722;SDS011;67811;42.656;23.394;2023-05-15T01:28:53;5.60;;;4.40;;
77722;SDS011;67811;42.656;23.394;2023-05-15T01:31:24;8.48;;;4.95;;
77722;SDS011;67811;42.656;23.394;2023-05-15T01:33:53;7.00;;;5.60;;
77722;SDS011;67811;42.656;23.394;2023-05-15T01:44:21;8.57;;;6.28;;
77722;SDS011;67811;42.656;23.394;2023-05-15T01:46:58;11.65;;;6.55;;
77722;SDS011;67811;42.656;23.394;2023-05-15T01:49:28;18.05;;;9.75;;
77722;SDS011;67811;42.656;23.394;2023-05-15T01:54:24;13.93;;;6.13;;
77722;SDS011;67811;42.656;23.394;2023-05-15T01:56:52;12.65;;;6.75;;
77722;SDS011;67811;42.656;23.394;2023-05-15T01:59:19;14.75;;;6.00;;
77722;SDS011;67811;42.656;23.394;2023-05-15T02:01:45;12.73;;;7.20;;
77722;SDS011;67811;42.656;23.394;2023-05-15T02:04:12;9.98;;;6.38;;
77722;SDS011;67811;42.656;23.394;2023-05-15T02:06:38;10.57;;;6.75;;
77722;SDS011;67811;42.656;23.394;2023-05-15T02:09:04;9.63;;;6.03;;
77722;SDS011;67811;42.656;23.394;2023-05-15T02:11:31;8.77;;;5.75;;
77722;SDS011;67811;42.656;23.394;2023-05-15T02:13:57;12.32;;;6.72;;
77722;SDS011;67811;42.656;23.394;2023-05-15T02:16:24;11.38;;;6.75;;
77722;SDS011;67811;42.656;23.394;2023-05-15T02:18:49;8.40;;;6.03;;
77722;SDS011;67811;42.656;23.394;2023-05-15T02:21:14;9.43;;;5.82;;
77722;SDS011;67811;42.656;23.394;2023-05-15T02:23:40;11.13;;;7.55;;
77722;SDS011;67811;42.656;23.394;2023-05-15T02:31:16;9.02;;;6.60;;
77722;SDS011;67811;42.656;23.394;2023-05-15T02:36:46;10.98;;;8.15;;
77722;SDS011;67811;42.656;23.394;2023-05-15T02:39:15;11.25;;;6.68;;
77722;SDS011;67811;42.656;23.394;2023-05-15T02:41:43;9.80;;;5.53;;
77722;SDS011;67811;42.656;23.394;2023-05-15T02:44:10;8.07;;;5.88;;
77722;SDS011;67811;42.656;23.394;2023-05-15T02:46:37;9.02;;;6.40;;
77722;SDS011;67811;42.656;23.394;2023-05-15T02:49:03;10.20;;;5.60;;
77722;SDS011;67811;42.656;23.394;2023-05-15T02:51:29;8.88;;;6.32;;
77722;SDS011;67811;42.656;23.394;2023-05-15T02:53:54;7.55;;;5.15;;
77722;SDS011;67811;42.656;23.394;2023-05-15T02:56:19;8.70;;;5.63;;
77722;SDS011;67811;42.656;23.394;2023-05-15T02:58:44;9.98;;;5.05;;
77722;SDS011;67811;42.656;23.394;2023-05-15T03:01:10;11.50;;;7.78;;
77722;SDS011;67811;42.656;23.394;2023-05-15T03:03:35;10.40;;;6.78;;
77722;SDS011;67811;42.656;23.394;2023-05-15T03:06:00;10.27;;;6.55;;
77722;SDS011;67811;42.656;23.394;2023-05-15T03:08:26;11.98;;;7.28;;
77722;SDS011;67811;42.656;23.394;2023-05-15T03:10:51;9.05;;;6.38;;
77722;SDS011;67811;42.656;23.394;2023-05-15T03:13:16;12.20;;;6.88;;
77722;SDS011;67811;42.656;23.394;2023-05-15T03:15:45;12.18;;;6.90;;
77722;SDS011;67811;42.656;23.394;2023-05-15T03:18:10;8.60;;;7.05;;
77722;SDS011;67811;42.656;23.394;2023-05-15T03:20:35;9.93;;;7.10;;
77722;SDS011;67811;42.656;23.394;2023-05-15T03:23:00;11.18;;;6.72;;
77722;SDS011;67811;42.656;23.394;2023-05-15T03:25:26;9.93;;;6.30;;
77722;SDS011;67811;42.656;23.394;2023-05-15T03:27:51;11.10;;;7.15;;
77722;SDS011;67811;42.656;23.394;2023-05-15T03:30:16;10.73;;;6.55;;
77722;SDS011;67811;42.656;23.394;2023-05-15T03:32:41;9.57;;;6.45;;
77722;SDS011;67811;42.656;23.394;2023-05-15T03:35:07;11.85;;;7.97;;
77722;SDS011;67811;42.656;23.394;2023-05-15T03:37:32;9.48;;;5.32;;
77722;SDS011;67811;42.656;23.394;2023-05-15T03:39:58;9.10;;;5.75;;
77722;SDS011;67811;42.656;23.394;2023-05-15T03:42:23;11.98;;;6.03;;
77722;SDS011;67811;42.656;23.394;2023-05-15T03:44:48;9.85;;;7.00;;
77722;SDS011;67811;42.656;23.394;2023-05-15T03:47:14;11.27;;;7.07;;
77722;SDS011;67811;42.656;23.394;2023-05-15T03:49:40;10.95;;;6.93;;
77722;SDS011;67811;42.656;23.394;2023-05-15T03:52:05;13.25;;;7.88;;
77722;SDS011;67811;42.656;23.394;2023-05-15T03:54:31;10.63;;;6.60;;
77722;SDS011;67811;42.656;23.394;2023-05-15T03:56:57;11.10;;;7.47;;
77722;SDS011;67811;42.656;23.394;2023-05-15T03:59:22;13.15;;;8.57;;
77722;SDS011;67811;42.656;23.394;2023-05-15T04:01:47;11.10;;;7.50;;
77722;SDS011;67811;42.656;23.394;2023-05-15T04:04:13;11.90;;;7.10;;
77722;SDS011;67811;42.656;23.394;2023-05-15T04:06:38;14.40;;;7.85;;
77722;SDS011;67811;42.656;23.394;2023-05-15T04:09:03;10.90;;;8.57;;
77722;SDS011;67811;42.656;23.394;2023-05-15T04:11:28;20.23;;;7.95;;
77722;SDS011;67811;42.656;23.394;2023-05-15T04:13:54;13.35;;;9.90;;
77722;SDS011;67811;42.656;23.394;2023-05-15T04:16:19;13.50;;;8.55;;
77722;SDS011;67811;42.656;23.394;2023-05-15T04:18:44;13.70;;;8.73;;
77722;SDS011;67811;42.656;23.394;2023-05-15T04:21:09;14.70;;;7.82;;
77722;SDS011;67811;42.656;23.394;2023-05-15T04:23:35;12.35;;;6.60;;
77722;SDS011;67811;42.656;23.394;2023-05-15T04:26:00;11.85;;;8.57;;
77722;SDS011;67811;42.656;23.394;2023-05-15T04:28:25;16.58;;;10.02;;
77722;SDS011;67811;42.656;23.394;2023-05-15T04:30:50;16.08;;;8.75;;
77722;SDS011;67811;42.656;23.394;2023-05-15T04:33:16;12.68;;;8.18;;
77722;SDS011;67811;42.656;23.394;2023-05-15T04:35:41;14.93;;;8.82;;
77722;SDS011;67811;42.656;23.394;2023-05-15T04:38:06;14.13;;;8.02;;
77722;SDS011;67811;42.656;23.394;2023-05-15T04:40:32;15.65;;;8.02;;
77722;SDS011;67811;42.656;23.394;2023-05-15T04:42:57;13.50;;;9.25;;
77722;SDS011;67811;42.656;23.394;2023-05-15T04:45:22;14.60;;;7.88;;
77722;SDS011;67811;42.656;23.394;2023-05-15T04:47:47;13.82;;;8.18;;
77722;SDS011;67811;42.656;23.394;2023-05-15T04:50:13;13.75;;;8.75;;
77722;SDS011;67811;42.656;23.394;2023-05-15T04:52:38;16.00;;;9.60;;
77722;SDS011;67811;42.656;23.394;2023-05-15T04:55:03;20.13;;;12.23;;
77722;SDS011;67811;42.656;23.394;2023-05-15T04:57:29;24.02;;;14.15;;
77722;SDS011;67811;42.656;23.394;2023-05-15T04:59:54;16.42;;;9.40;;
77722;SDS011;67811;42.656;23.394;2023-05-15T05:02:20;18.15;;;10.23;;
77722;SDS011;67811;42.656;23.394;2023-05-15T05:04:46;21.05;;;10.05;;
77722;SDS011;67811;42.656;23.394;2023-05-15T05:07:12;18.83;;;9.45;;
77722;SDS011;67811;42.656;23.394;2023-05-15T05:09:37;22.77;;;9.95;;
77722;SDS011;67811;42.656;23.394;2023-05-15T05:12:03;16.92;;;10.80;;
77722;SDS011;67811;42.656;23.394;2023-05-15T05:14:29;17.58;;;12.02;;
77722;SDS011;67811;42.656;23.394;2023-05-15T05:16:54;17.92;;;10.23;;
77722;SDS011;67811;42.656;23.394;2023-05-15T05:19:19;18.05;;;9.27;;
77722;SDS011;67811;42.656;23.394;2023-05-15T05:21:45;18.02;;;11.63;;
77722;SDS011;67811;42.656;23.394;2023-05-15T05:24:10;21.13;;;12.65;;
77722;SDS011;67811;42.656;23.394;2023-05-15T05:26:35;22.33;;;11.85;;
77722;SDS011;67811;42.656;23.394;2023-05-15T05:29:00;18.92;;;11.43;;
77722;SDS011;67811;42.656;23.394;2023-05-15T05:31:26;30.25;;;12.70;;
77722;SDS011;67811;42.656;23.394;2023-05-15T05:33:51;20.25;;;11.98;;
77722;SDS011;67811;42.656;23.394;2023-05-15T05:36:16;19.55;;;10.20;;
77722;SDS011;67811;42.656;23.394;2023-05-15T05:38:42;24.80;;;11.52;;
77722;SDS011;67811;42.656;23.394;2023-05-15T05:41:07;17.90;;;9.60;;
77722;SDS011;67811;42.656;23.394;2023-05-15T05:43:32;21.13;;;11.93;;
77722;SDS011;67811;42.656;23.394;2023-05-15T05:45:58;19.17;;;10.10;;
77722;SDS011;67811;42.656;23.394;2023-05-15T05:48:23;20.48;;;10.60;;
77722;SDS011;67811;42.656;23.394;2023-05-15T05:50:48;20.17;;;11.00;;
77722;SDS011;67811;42.656;23.394;2023-05-15T05:53:13;25.38;;;13.88;;
77722;SDS011;67811;42.656;23.394;2023-05-15T05:55:39;22.38;;;12.70;;
77722;SDS011;67811;42.656;23.394;2023-05-15T05:58:04;23.08;;;12.52;;
77722;SDS011;67811;42.656;23.394;2023-05-15T06:00:29;25.45;;;12.05;;
77722;SDS011;67811;42.656;23.394;2023-05-15T06:02:56;20.05;;;12.60;;
77722;SDS011;67811;42.656;23.394;2023-05-15T06:05:25;20.65;;;11.85;;
77722;SDS011;67811;42.656;23.394;2023-05-15T06:07:51;26.80;;;12.35;;
77722;SDS011;67811;42.656;23.394;2023-05-15T06:10:16;24.73;;;13.55;;
77722;SDS011;67811;42.656;23.394;2023-05-15T06:12:42;23.45;;;11.93;;
77722;SDS011;67811;42.656;23.394;2023-05-15T06:15:07;25.67;;;13.57;;
77722;SDS011;67811;42.656;23.394;2023-05-15T06:17:33;21.92;;;10.82;;
77722;SDS011;67811;42.656;23.394;2023-05-15T06:19:58;19.77;;;10.25;;
77722;SDS011;67811;42.656;23.394;2023-05-15T06:22:24;18.45;;;9.75;;
77722;SDS011;67811;42.656;23.394;2023-05-15T06:24:49;17.50;;;9.35;;
77722;SDS011;67811;42.656;23.394;2023-05-15T06:27:14;20.65;;;11.32;;
77722;SDS011;67811;42.656;23.394;2023-05-15T06:29:39;21.02;;;10.70;;
77722;SDS011;67811;42.656;23.394;2023-05-15T06:32:05;22.13;;;11.13;;
77722;SDS011;67811;42.656;23.394;2023-05-15T06:34:30;22.55;;;9.60;;
77722;SDS011;67811;42.656;23.394;2023-05-15T06:36:56;21.13;;;10.80;;
77722;SDS011;67811;42.656;23.394;2023-05-15T06:39:21;18.75;;;10.93;;
77722;SDS011;67811;42.656;23.394;2023-05-15T06:41:46;24.63;;;10.70;;
77722;SDS011;67811;42.656;23.394;2023-05-15T06:44:12;12.52;;;7.60;;
77722;SDS011;67811;42.656;23.394;2023-05-15T06:46:37;14.90;;;8.02;;
77722;SDS011;67811;42.656;23.394;2023-05-15T06:49:02;15.13;;;8.40;;
77722;SDS011;67811;42.656;23.394;2023-05-15T06:51:27;20.10;;;10.02;;
77722;SDS011;67811;42.656;23.394;2023-05-15T06:53:53;20.90;;;12.40;;
77722;SDS011;67811;42.656;23.394;2023-05-15T06:56:18;13.50;;;7.03;;
77722;SDS011;67811;42.656;23.394;2023-05-15T06:58:43;18.45;;;9.38;;
77722;SDS011;67811;42.656;23.394;2023-05-15T07:01:09;22.98;;;12.15;;
77722;SDS011;67811;42.656;23.394;2023-05-15T07:03:34;23.10;;;11.45;;
77722;SDS011;67811;42.656;23.394;2023-05-15T07:05:59;20.45;;;8.90;;
77722;SDS011;67811;42.656;23.394;2023-05-15T07:08:25;20.70;;;10.40;;
77722;SDS011;67811;42.656;23.394;2023-05-15T07:10:50;19.90;;;10.73;;
77722;SDS011;67811;42.656;23.394;2023-05-15T07:13:15;14.63;;;8.88;;
77722;SDS011;67811;42.656;23.394;2023-05-15T07:15:41;21.27;;;10.55;;
77722;SDS011;67811;42.656;23.394;2023-05-15T07:18:06;15.13;;;9.05;;
77722;SDS011;67811;42.656;23.394;2023-05-15T07:20:31;22.70;;;11.15;;
77722;SDS011;67811;42.656;23.394;2023-05-15T07:22:57;19.85;;;10.35;;
77722;SDS011;67811;42.656;23.394;2023-05-15T07:25:23;18.95;;;10.30;;
77722;SDS011;67811;42.656;23.394;2023-05-15T07:27:48;21.85;;;11.80;;
77722;SDS011;67811;42.656;23.394;2023-05-15T07:30:14;20.05;;;11.30;;
77722;SDS011;67811;42.656;23.394;2023-05-15T07:32:39;21.13;;;11.43;;
77722;SDS011;67811;42.656;23.394;2023-05-15T07:35:04;18.90;;;10.60;;
77722;SDS011;67811;42.656;23.394;2023-05-15T07:37:30;26.80;;;11.02;;
77722;SDS011;67811;42.656;23.394;2023-05-15T07:39:55;22.55;;;12.75;;
77722;SDS011;67811;42.656;23.394;2023-05-15T07:42:20;19.35;;;10.18;;
77722;SDS011;67811;42.656;23.394;2023-05-15T07:44:45;23.95;;;12.80;;
77722;SDS011;67811;42.656;23.394;2023-05-15T07:47:11;25.85;;;10.38;;
77722;SDS011;67811;42.656;23.394;2023-05-15T07:49:36;17.70;;;10.57;;
77722;SDS011;67811;42.656;23.394;2023-05-15T07:52:01;17.80;;;10.57;;
77722;SDS011;67811;42.656;23.394;2023-05-15T07:54:27;17.83;;;11.05;;
77722;SDS011;67811;42.656;23.394;2023-05-15T07:56:52;23.98;;;12.25;;
77722;SDS011;67811;42.656;23.394;2023-05-15T07:59:17;22.65;;;10.82;;
77722;SDS011;67811;42.656;23.394;2023-05-15T08:01:42;22.88;;;13.40;;
77722;SDS011;67811;42.656;23.394;2023-05-15T08:04:08;21.67;;;13.07;;
77722;SDS011;67811;42.656;23.394;2023-05-15T08:06:33;23.00;;;13.50;;
77722;SDS011;67811;42.656;23.394;2023-05-15T08:08:59;29.10;;;14.80;;
77722;SDS011;67811;42.656;23.394;2023-05-15T08:11:25;27.55;;;13.88;;
77722;SDS011;67811;42.656;23.394;2023-05-15T08:13:50;27.17;;;13.20;;
77722;SDS011;67811;42.656;23.394;2023-05-15T08:16:15;26.23;;;13.27;;
77722;SDS011;67811;42.656;23.394;2023-05-15T08:18:41;19.90;;;11.32;;
77722;SDS011;67811;42.656;23.394;2023-05-15T08:23:56;26.10;;;14.85;;
77722;SDS011;67811;42.656;23.394;2023-05-15T08:26:21;19.05;;;11.85;;
77722;SDS011;67811;42.656;23.394;2023-05-15T08:28:46;22.15;;;12.77;;
77722;SDS011;67811;42.656;23.394;2023-05-15T08:31:12;22.75;;;12.65;;
77722;SDS011;67811;42.656;23.394;2023-05-15T08:33:37;25.20;;;12.38;;
77722;SDS011;67811;42.656;23.394;2023-05-15T08:36:02;25.20;;;12.45;;
77722;SDS011;67811;42.656;23.394;2023-05-15T08:38:28;15.05;;;9.73;;
77722;SDS011;67811;42.656;23.394;2023-05-15T08:40:53;22.73;;;11.23;;
77722;SDS011;67811;42.656;23.394;2023-05-15T08:43:22;15.35;;;10.32;;
77722;SDS011;67811;42.656;23.394;2023-05-15T08:45:50;19.33;;;9.75;;
77722;SDS011;67811;42.656;23.394;2023-05-15T08:48:18;17.38;;;11.35;;
77722;SDS011;67811;42.656;23.394;2023-05-15T08:50:43;18.02;;;10.07;;
77722;SDS011;67811;42.656;23.394;2023-05-15T08:53:12;16.20;;;8.13;;
77722;SDS011;67811;42.656;23.394;2023-05-15T08:55:38;22.40;;;10.48;;
77722;SDS011;67811;42.656;23.394;2023-05-15T08:58:04;23.05;;;10.38;;
77722;SDS011;67811;42.656;23.394;2023-05-15T09:00:29;22.52;;;12.00;;
77722;SDS011;67811;42.656;23.394;2023-05-15T09:02:57;23.52;;;12.02;;
77722;SDS011;67811;42.656;23.394;2023-05-15T09:05:23;21.30;;;13.25;;
77722;SDS011;67811;42.656;23.394;2023-05-15T09:07:49;22.50;;;12.38;;
77722;SDS011;67811;42.656;23.394;2023-05-15T09:10:16;27.02;;;12.63;;
77722;SDS011;67811;42.656;23.394;2023-05-15T09:12:42;27.38;;;14.60;;
77722;SDS011;67811;42.656;23.394;2023-05-15T09:15:09;20.63;;;12.13;;
77722;SDS011;67811;42.656;23.394;2023-05-15T09:17:38;14.32;;;10.15;;
77722;SDS011;67811;42.656;23.394;2023-05-15T09:20:04;25.55;;;14.63;;
77722;SDS011;67811;42.656;23.394;2023-05-15T09:22:34;24.65;;;12.63;;
77722;SDS011;67811;42.656;23.394;2023-05-15T09:24:59;26.48;;;14.07;;
77722;SDS011;67811;42.656;23.394;2023-05-15T09:27:25;25.15;;;13.55;;
77722;SDS011;67811;42.656;23.394;2023-05-15T09:29:50;20.42;;;13.63;;
77722;SDS011;67811;42.656;23.394;2023-05-15T09:32:16;26.38;;;13.30;;
77722;SDS011;67811;42.656;23.394;2023-05-15T09:34:42;24.75;;;14.30;;
77722;SDS011;67811;42.656;23.394;2023-05-15T09:37:09;24.08;;;14.20;;
77722;SDS011;67811;42.656;23.394;2023-05-15T09:39:43;18.48;;;10.85;;
77722;SDS011;67811;42.656;23.394;2023-05-15T09:42:09;20.60;;;13.10;;
77722;SDS011;67811;42.656;23.394;2023-05-15T09:44:39;20.55;;;13.85;;
77722;SDS011;67811;42.656;23.394;2023-05-15T09:47:05;18.50;;;10.57;;
77722;SDS011;67811;42.656;23.394;2023-05-15T09:49:30;24.38;;;12.13;;
77722;SDS011;67811;42.656;23.394;2023-05-15T09:51:59;20.00;;;12.50;;
77722;SDS011;67811;42.656;23.394;2023-05-15T09:54:25;22.23;;;12.13;;
77722;SDS011;67811;42.656;23.394;2023-05-15T09:56:51;16.17;;;10.57;;
77722;SDS011;67811;42.656;23.394;2023-05-15T09:59:18;21.17;;;9.93;;
77722;SDS011;67811;42.656;23.394;2023-05-15T10:01:44;20.13;;;10.75;;
77722;SDS011;67811;42.656;23.394;2023-05-15T10:04:10;16.55;;;11.02;;
77722;SDS011;67811;42.656;23.394;2023-05-15T10:06:44;16.73;;;9.60;;
77722;SDS011;67811;42.656;23.394;2023-05-15T10:09:11;18.55;;;10.43;;
77722;SDS011;67811;42.656;23.394;2023-05-15T10:11:37;21.65;;;11.95;;
77722;SDS011;67811;42.656;23.394;2023-05-15T10:14:04;17.08;;;9.27;;
77722;SDS011;67811;42.656;23.394;2023-05-15T10:16:32;15.75;;;8.95;;
77722;SDS011;67811;42.656;23.394;2023-05-15T10:18:58;19.70;;;10.82;;
77722;SDS011;67811;42.656;23.394;2023-05-15T10:21:27;17.95;;;11.68;;
77722;SDS011;67811;42.656;23.394;2023-05-15T10:23:54;20.15;;;11.38;;
77722;SDS011;67811;42.656;23.394;2023-05-15T10:26:23;15.48;;;10.10;;
77722;SDS011;67811;42.656;23.394;2023-05-15T10:28:52;21.10;;;11.77;;
77722;SDS011;67811;42.656;23.394;2023-05-15T10:31:18;19.38;;;11.10;;
77722;SDS011;67811;42.656;23.394;2023-05-15T10:33:44;18.02;;;10.98;;
77722;SDS011;67811;42.656;23.394;2023-05-15T10:36:10;26.52;;;11.73;;
77722;SDS011;67811;42.656;23.394;2023-05-15T10:38:36;15.52;;;9.43;;
77722;SDS011;67811;42.656;23.394;2023-05-15T10:41:03;18.77;;;10.05;;
77722;SDS011;67811;42.656;23.394;2023-05-15T10:43:29;17.55;;;10.18;;
77722;SDS011;67811;42.656;23.394;2023-05-15T10:45:55;15.88;;;10.20;;
77722;SDS011;67811;42.656;23.394;2023-05-15T10:48:21;17.85;;;10.00;;
77722;SDS011;67811;42.656;23.394;2023-05-15T10:50:48;19.17;;;9.82;;
77722;SDS011;67811;42.656;23.394;2023-05-15T10:53:13;20.55;;;12.05;;
77722;SDS011;67811;42.656;23.394;2023-05-15T10:55:39;26.00;;;11.98;;
77722;SDS011;67811;42.656;23.394;2023-05-15T10:58:07;20.92;;;10.05;;
77722;SDS011;67811;42.656;23.394;2023-05-15T11:00:34;19.80;;;11.15;;
77722;SDS011;67811;42.656;23.394;2023-05-15T11:03:06;16.95;;;10.45;;
77722;SDS011;67811;42.656;23.394;2023-05-15T11:05:31;24.10;;;11.43;;
77722;SDS011;67811;42.656;23.394;2023-05-15T11:08:32;22.70;;;11.20;;
77722;SDS011;67811;42.656;23.394;2023-05-15T11:10:58;27.55;;;12.07;;
77722;SDS011;67811;42.656;23.394;2023-05-15T11:13:23;20.67;;;11.23;;
77722;SDS011;67811;42.656;23.394;2023-05-15T11:15:49;18.42;;;10.00;;
77722;SDS011;67811;42.656;23.394;2023-05-15T11:18:15;19.08;;;10.18;;
77722;SDS011;67811;42.656;23.394;2023-05-15T11:20:41;15.00;;;9.10;;
77722;SDS011;67811;42.656;23.394;2023-05-15T11:23:07;18.67;;;10.60;;
77722;SDS011;67811;42.656;23.394;2023-05-15T11:25:33;17.35;;;9.75;;
77722;SDS011;67811;42.656;23.394;2023-05-15T11:27:59;19.15;;;10.35;;
77722;SDS011;67811;42.656;23.394;2023-05-15T11:30:58;18.65;;;10.70;;
77722;SDS011;67811;42.656;23.394;2023-05-15T11:33:16;22.23;;;11.98;;
77722;SDS011;67811;42.656;23.394;2023-05-15T11:35:45;19.45;;;11.35;;
77722;SDS011;67811;42.656;23.394;2023-05-15T11:38:13;19.60;;;10.10;;
77722;SDS011;67811;42.656;23.394;2023-05-15T11:40:57;16.85;;;10.55;;
77722;SDS011;67811;42.656;23.394;2023-05-15T11:43:24;22.17;;;11.23;;
77722;SDS011;67811;42.656;23.394;2023-05-15T11:45:51;22.20;;;11.40;;
77722;SDS011;67811;42.656;23.394;2023-05-15T11:48:41;16.55;;;10.35;;
77722;SDS011;67811;42.656;23.394;2023-05-15T11:51:14;17.92;;;11.30;;
77722;SDS011;67811;42.656;23.394;2023-05-15T11:53:40;21.95;;;11.38;;
77722;SDS011;67811;42.656;23.394;2023-05-15T11:56:06;21.48;;;11.82;;
77722;SDS011;67811;42.656;23.394;2023-05-15T11:58:37;22.20;;;12.85;;
77722;SDS011;67811;42.656;23.394;2023-05-15T12:01:03;19.67;;;11.32;;
77722;SDS011;67811;42.656;23.394;2023-05-15T12:03:32;22.23;;;10.65;;
77722;SDS011;67811;42.656;23.394;2023-05-15T12:05:58;15.80;;;9.10;;
77722;SDS011;67811;42.656;23.394;2023-05-15T12:08:35;15.13;;;9.13;;
77722;SDS011;67811;42.656;23.394;2023-05-15T12:11:01;15.82;;;10.00;;
77722;SDS011;67811;42.656;23.394;2023-05-15T12:13:28;17.50;;;9.93;;
77722;SDS011;67811;42.656;23.394;2023-05-15T12:15:54;16.17;;;8.70;;
77722;SDS011;67811;42.656;23.394;2023-05-15T12:18:20;16.75;;;9.90;;
77722;SDS011;67811;42.656;23.394;2023-05-15T12:20:45;15.70;;;9.13;;
77722;SDS011;67811;42.656;23.394;2023-05-15T12:23:13;18.77;;;9.38;;
77722;SDS011;67811;42.656;23.394;2023-05-15T12:25:39;16.63;;;8.68;;
77722;SDS011;67811;42.656;23.394;2023-05-15T12:28:05;15.95;;;7.93;;
77722;SDS011;67811;42.656;23.394;2023-05-15T12:30:31;17.08;;;9.10;;
77722;SDS011;67811;42.656;23.394;2023-05-15T12:32:59;19.80;;;9.68;;
77722;SDS011;67811;42.656;23.394;2023-05-15T12:35:26;18.90;;;10.80;;
77722;SDS011;67811;42.656;23.394;2023-05-15T12:37:51;16.40;;;9.45;;
77722;SDS011;67811;42.656;23.394;2023-05-15T12:40:18;21.77;;;10.85;;
77722;SDS011;67811;42.656;23.394;2023-05-15T12:42:44;14.93;;;8.30;;
77722;SDS011;67811;42.656;23.394;2023-05-15T12:47:40;12.88;;;8.48;;
77722;SDS011;67811;42.656;23.394;2023-05-15T12:50:19;16.10;;;8.90;;
77722;SDS011;67811;42.656;23.394;2023-05-15T12:52:55;15.65;;;8.77;;
77722;SDS011;67811;42.656;23.394;2023-05-15T12:55:31;14.40;;;7.55;;
77722;SDS011;67811;42.656;23.394;2023-05-15T12:58:02;17.25;;;8.48;;
77722;SDS011;67811;42.656;23.394;2023-05-15T13:00:29;12.35;;;6.95;;
77722;SDS011;67811;42.656;23.394;2023-05-15T13:02:55;11.18;;;6.57;;
77722;SDS011;67811;42.656;23.394;2023-05-15T13:05:21;12.80;;;8.43;;
77722;SDS011;67811;42.656;23.394;2023-05-15T13:07:47;14.77;;;7.75;;
77722;SDS011;67811;42.656;23.394;2023-05-15T13:10:13;12.52;;;8.02;;
77722;SDS011;67811;42.656;23.394;2023-05-15T13:12:42;12.18;;;8.27;;
77722;SDS011;67811;42.656;23.394;2023-05-15T13:15:20;14.35;;;7.18;;
77722;SDS011;67811;42.656;23.394;2023-05-15T13:17:47;19.00;;;8.00;;
77722;SDS011;67811;42.656;23.394;2023-05-15T13:20:12;10.38;;;7.03;;
77722;SDS011;67811;42.656;23.394;2023-05-15T13:22:37;14.27;;;7.50;;
77722;SDS011;67811;42.656;23.394;2023-05-15T13:25:03;15.27;;;8.35;;
77722;SDS011;67811;42.656;23.394;2023-05-15T13:27:29;12.60;;;6.43;;
77722;SDS011;67811;42.656;23.394;2023-05-15T13:29:54;16.08;;;7.57;;
77722;SDS011;67811;42.656;23.394;2023-05-15T13:32:19;12.40;;;8.15;;
77722;SDS011;67811;42.656;23.394;2023-05-15T13:34:44;12.65;;;7.97;;
77722;SDS011;67811;42.656;23.394;2023-05-15T13:37:10;16.45;;;8.35;;
77722;SDS011;67811;42.656;23.394;2023-05-15T13:39:35;14.93;;;8.63;;
77722;SDS011;67811;42.656;23.394;2023-05-15T13:42:00;16.55;;;9.70;;
77722;SDS011;67811;42.656;23.394;2023-05-15T13:44:26;16.67;;;8.35;;
77722;SDS011;67811;42.656;23.394;2023-05-15T13:46:51;14.00;;;8.52;;
77722;SDS011;67811;42.656;23.394;2023-05-15T13:49:16;12.48;;;7.07;;
77722;SDS011;67811;42.656;23.394;2023-05-15T13:51:41;17.33;;;8.85;;
77722;SDS011;67811;42.656;23.394;2023-05-15T13:54:07;17.08;;;9.48;;
77722;SDS011;67811;42.656;23.394;2023-05-15T13:56:32;11.77;;;7.95;;
77722;SDS011;67811;42.656;23.394;2023-05-15T13:58:57;19.38;;;8.85;;
77722;SDS011;67811;42.656;23.394;2023-05-15T14:01:23;13.20;;;7.45;;
77722;SDS011;67811;42.656;23.394;2023-05-15T14:03:48;15.70;;;7.45;;
77722;SDS011;67811;42.656;23.394;2023-05-15T14:06:13;20.95;;;8.88;;
77722;SDS011;67811;42.656;23.394;2023-05-15T14:08:38;13.43;;;8.88;;
77722;SDS011;67811;42.656;23.394;2023-05-15T14:11:04;18.90;;;9.93;;
77722;SDS011;67811;42.656;23.394;2023-05-15T14:13:29;12.38;;;7.15;;
77722;SDS011;67811;42.656;23.394;2023-05-15T14:15:54;16.83;;;8.48;;
77722;SDS011;67811;42.656;23.394;2023-05-15T14:18:19;15.38;;;8.80;;
77722;SDS011;67811;42.656;23.394;2023-05-15T14:20:45;12.70;;;8.05;;
77722;SDS011;67811;42.656;23.394;2023-05-15T14:23:10;13.80;;;8.02;;
77722;SDS011;67811;42.656;23.394;2023-05-15T14:25:35;12.88;;;8.25;;
77722;SDS011;67811;42.656;23.394;2023-05-15T14:28:00;14.02;;;6.78;;
77722;SDS011;67811;42.656;23.394;2023-05-15T14:30:26;14.07;;;7.32;;
77722;SDS011;67811;42.656;23.394;2023-05-15T14:32:51;14.25;;;7.28;;
77722;SDS011;67811;42.656;23.394;2023-05-15T14:35:16;17.08;;;8.30;;
77722;SDS011;67811;42.656;23.394;2023-05-15T14:37:42;11.07;;;6.78;;
77722;SDS011;67811;42.656;23.394;2023-05-15T14:40:07;13.70;;;6.03;;
77722;SDS011;67811;42.656;23.394;2023-05-15T14:42:33;8.85;;;5.15;;
77722;SDS011;67811;42.656;23.394;2023-05-15T14:44:58;7.95;;;5.10;;